Time;durP1;ratioP1;P1;durP2;ratioP2;P2;SDS_P1;SDS_P2;PMS_P1;PMS_P2;Temp;Humidity;BMP_temperature;BMP_pressure;BME280_temperature;BME280_humidity;BME280_pressure;Samples;Min_cycle;Max_cycle;Signal;HPM_P1;HPM_P2
2023/01/04 00:00:31;;;;;;;11.95;3.00;;;;;;;7.66;83.81;101773.59;5052817;28;20540;-55
2023/01/04 00:02:58;;;;;;;8.68;2.55;;;;;;;7.68;84.05;101772.50;5052743;28;20052;-55
2023/01/04 00:05:24;;;;;;;15.30;3.22;;;;;;;7.71;82.63;101762.69;5052677;28;20059;-54
2023/01/04 00:07:51;;;;;;;9.80;2.55;;;;;;;7.76;82.63;101755.28;5052537;28;20041;-54
2023/01/04 00:10:18;;;;;;;12.90;2.58;;;;;;;7.74;82.61;101749.25;5052724;28;20179;-54
2023/01/04 00:12:44;;;;;;;7.03;2.38;;;;;;;7.83;82.54;101748.59;5055843;28;20057;-54
2023/01/04 00:15:11;;;;;;;13.85;2.60;;;;;;;7.88;82.64;101743.81;5056489;28;20052;-56
2023/01/04 00:17:38;;;;;;;9.85;2.50;;;;;;;7.86;82.50;101730.72;5051949;28;20045;-54
2023/01/04 00:20:05;;;;;;;7.30;2.30;;;;;;;7.86;82.56;101743.09;5055649;28;20053;-54
2023/01/04 00:22:33;;;;;;;15.27;2.83;;;;;;;7.97;82.63;101732.56;5055645;28;20045;-56
2023/01/04 00:25:00;;;;;;;15.32;3.05;;;;;;;7.99;82.26;101732.47;5055748;28;20536;-56
2023/01/04 00:27:27;;;;;;;11.27;2.90;;;;;;;8.11;82.04;101728.06;5056366;28;20041;-54
2023/01/04 00:29:53;;;;;;;11.43;2.67;;;;;;;8.10;81.93;101732.50;5056284;28;20048;-54
2023/01/04 00:32:20;;;;;;;13.25;2.70;;;;;;;8.11;82.31;101728.06;5056207;28;20049;-54
2023/01/04 00:34:47;;;;;;;13.45;2.30;;;;;;;8.17;82.60;101723.16;5056053;28;20049;-54
2023/01/04 00:37:13;;;;;;;12.38;2.60;;;;;;;8.10;83.54;101711.38;5056225;28;20041;-55
2023/01/04 00:39:40;;;;;;;10.40;2.30;;;;;;;8.13;84.03;101727.00;5056283;28;20102;-54
2023/01/04 00:42:07;;;;;;;10.77;2.40;;;;;;;8.20;84.59;101709.69;5056079;28;20041;-54
2023/01/04 00:44:34;;;;;;;10.27;2.40;;;;;;;8.10;86.82;101711.38;5055758;28;20406;-54
2023/01/04 00:47:02;;;;;;;11.13;2.30;;;;;;;8.19;86.16;101708.03;5056002;28;20095;-54
2023/01/04 00:49:29;;;;;;;10.73;2.42;;;;;;;8.11;87.85;101722.78;5055710;28;20045;-54
2023/01/04 00:51:56;;;;;;;12.02;2.42;;;;;;;8.13;87.36;101699.72;5056048;28;20049;-53
2023/01/04 00:54:24;;;;;;;15.32;3.55;;;;;;;8.19;87.57;101701.91;5055970;28;20045;-54
2023/01/04 00:56:51;;;;;;;10.02;2.40;;;;;;;8.16;88.02;101692.41;5055831;28;20045;-54
2023/01/04 00:59:19;;;;;;;11.45;2.47;;;;;;;8.10;90.26;101686.75;5055810;28;20053;-54
2023/01/04 01:01:46;;;;;;;10.50;2.30;;;;;;;8.00;90.79;101687.41;5055820;28;20045;-55
2023/01/04 01:04:15;;;;;;;12.15;2.90;;;;;;;8.02;90.94;101685.50;5055538;28;20445;-55
2023/01/04 01:06:42;;;;;;;15.88;2.95;;;;;;;7.92;92.87;101673.94;5054680;28;20064;-54
2023/01/04 01:09:10;;;;;;;10.82;2.50;;;;;;;7.99;92.93;101671.69;5055446;28;20053;-54
2023/01/04 01:11:38;;;;;;;12.57;2.60;;;;;;;7.86;93.86;101650.63;5055403;28;20056;-55
2023/01/04 01:14:06;;;;;;;7.93;2.40;;;;;;;7.81;93.89;101658.03;5055881;28;20095;-55
2023/01/04 01:16:33;;;;;;;11.82;2.67;;;;;;;7.88;94.74;101654.00;5055388;28;20425;-55
2023/01/04 01:19:19;;;;;;;9.77;2.80;;;;;;;7.85;95.82;101649.75;5054456;28;20120;-55
2023/01/04 01:21:46;;;;;;;11.68;2.20;;;;;;;7.81;95.95;101650.13;5054205;28;20551;-55
2023/01/04 01:24:15;;;;;;;12.77;2.60;;;;;;;7.77;97.44;101638.94;5053383;28;20052;-55
2023/01/04 01:26:42;;;;;;;13.57;2.63;;;;;;;7.81;96.24;101640.38;5055112;28;20443;-55
2023/01/04 01:29:09;;;;;;;8.63;2.30;;;;;;;7.79;97.23;101631.75;5054986;28;20045;-55
2023/01/04 01:31:35;;;;;;;10.07;2.60;;;;;;;7.82;97.37;101634.16;5055466;28;20493;-55
2023/01/04 01:34:02;;;;;;;10.05;2.40;;;;;;;7.81;98.61;101634.28;5054949;28;20045;-55
2023/01/04 01:36:29;;;;;;;12.43;2.70;;;;;;;7.77;98.88;101620.44;5055165;28;20041;-54
2023/01/04 01:38:55;;;;;;;12.15;2.55;;;;;;;7.84;97.71;101624.31;5054848;28;20060;-54
2023/01/04 01:41:25;;;;;;;10.50;2.50;;;;;;;7.71;98.98;101620.06;5055109;28;20040;-55
2023/01/04 01:43:55;;;;;;;14.27;2.53;;;;;;;7.68;99.14;101616.69;5054667;28;20048;-55
2023/01/04 01:46:34;;;;;;;10.73;2.40;;;;;;;7.55;100.00;101613.28;5054767;28;20482;-54
2023/01/04 01:49:10;;;;;;;13.45;2.85;;;;;;;7.64;100.00;101607.31;5054900;28;20115;-55
2023/01/04 01:51:37;;;;;;;12.57;2.25;;;;;;;7.75;100.00;101598.59;5054334;28;20041;-55
2023/01/04 01:54:11;;;;;;;9.10;2.42;;;;;;;7.58;100.00;101601.63;5054742;28;20080;-55
2023/01/04 01:56:41;;;;;;;11.57;2.50;;;;;;;7.65;100.00;101606.34;5054680;28;20047;-55
2023/01/04 01:59:10;;;;;;;9.10;2.13;;;;;;;7.64;100.00;101599.38;5054560;28;20118;-55
2023/01/04 02:01:36;;;;;;;11.05;2.40;;;;;;;7.59;100.00;101605.97;5054733;28;20509;-54
2023/01/04 02:04:04;;;;;;;9.48;2.40;;;;;;;7.59;100.00;101600.69;5054312;28;20049;-54
2023/01/04 02:06:36;;;;;;;13.60;2.55;;;;;;;7.68;100.00;101603.47;5053910;28;20041;-54
2023/01/04 02:09:04;;;;;;;12.32;2.22;;;;;;;7.77;100.00;101603.75;5054129;28;20041;-55
2023/01/04 02:11:30;;;;;;;14.52;2.30;;;;;;;7.74;100.00;101596.06;5054602;28;20098;-55
2023/01/04 02:14:31;;;;;;;14.27;2.50;;;;;;;7.76;100.00;101599.44;5054266;28;20529;-54
2023/01/04 02:16:56;;;;;;;7.65;2.03;;;;;;;7.72;100.00;101596.16;5053637;28;20041;-55
2023/01/04 02:23:16;;;;;;;8.18;2.28;;;;;;;7.79;100.00;101586.00;5131017;27;20530;-56
2023/01/04 02:26:19;;;;;;;13.20;2.33;;;;;;;7.71;100.00;101589.19;5110436;28;20048;-56
2023/01/04 02:29:26;;;;;;;13.52;2.67;;;;;;;7.73;100.00;101591.72;5111148;28;20044;-56
2023/01/04 02:31:57;;;;;;;11.25;2.72;;;;;;;7.59;100.00;101587.50;5110549;28;20100;-56
2023/01/04 02:34:50;;;;;;;10.15;2.83;;;;;;;7.60;100.00;101576.78;5111087;28;20040;-56
2023/01/04 02:37:40;;;;;;;12.73;2.60;;;;;;;7.71;100.00;101570.69;5110571;28;20054;-56
2023/01/04 02:46:07;;;;;;;8.98;2.60;;;;;;;7.72;100.00;101553.91;5110971;28;20044;-54
2023/01/04 02:51:29;;;;;;;12.90;2.90;;;;;;;7.73;100.00;101544.19;5110829;28;20047;-54
2023/01/04 02:53:59;;;;;;;14.48;2.67;;;;;;;7.64;100.00;101541.28;5110987;28;20040;-55
2023/01/04 02:56:38;;;;;;;11.68;3.05;;;;;;;7.71;100.00;101535.53;5110990;28;20044;-54
2023/01/04 02:59:44;;;;;;;13.68;3.00;;;;;;;7.79;100.00;101531.38;5110428;28;20399;-55
2023/01/04 03:06:17;;;;;;;15.38;3.35;;;;;;;7.90;100.00;101535.00;5111041;27;20385;-55
2023/01/04 03:09:07;;;;;;;10.85;3.60;;;;;;;8.01;100.00;101524.44;5110533;28;20096;-56
2023/01/04 03:14:59;;;;;;;8.63;1.77;;;;;;;8.13;100.00;101520.84;5111033;28;20097;-55
2023/01/04 03:17:29;;;;;;;;;;;;;;;8.55;100.00;101507.03;5111311;28;20059;-55
2023/01/04 03:19:58;;;;;;;6.18;1.30;;;;;;;8.57;100.00;101519.19;5111029;28;19920;-56
2023/01/04 03:36:56;;;;;;;3.88;1.20;;;;;;;9.02;97.50;101491.78;5110527;28;20436;-56
2023/01/04 03:48:33;;;;;;;4.18;1.23;;;;;;;9.26;95.00;101465.09;5111221;28;20036;-55
2023/01/04 03:51:21;;;;;;;2.80;1.08;;;;;;;9.26;94.98;101464.25;5110857;28;20477;-55
2023/01/04 03:54:03;;;;;;;2.15;1.20;;;;;;;9.32;95.23;101469.88;5111336;28;20122;-56
2023/01/04 03:56:32;;;;;;;2.58;1.10;;;;;;;9.29;96.12;101466.66;5111132;28;20043;-55
2023/01/04 03:58:59;;;;;;;2.53;1.10;;;;;;;9.26;96.40;101451.00;5111156;28;20051;-55
2023/01/04 04:01:27;;;;;;;2.35;1.05;;;;;;;9.29;95.54;101445.47;5111017;28;20044;-56
2023/01/04 04:09:28;;;;;;;4.30;1.05;;;;;;;9.18;98.51;101433.97;5110279;28;20044;-56
2023/01/04 04:11:55;;;;;;;1.27;0.90;;;;;;;9.17;97.48;101429.66;5110935;28;20057;-56
2023/01/04 04:14:22;;;;;;;2.35;1.08;;;;;;;9.18;97.97;101431.31;5110732;28;20044;-56
2023/01/04 04:16:48;;;;;;;1.83;0.80;;;;;;;9.18;97.21;101428.66;5110815;28;20129;-56
2023/01/04 04:19:15;;;;;;;3.75;1.20;;;;;;;9.23;97.56;101426.47;5113933;28;20039;-56
2023/01/04 04:21:42;;;;;;;2.67;1.00;;;;;;;9.32;96.34;101438.09;5130399;27;20123;-55
2023/01/04 04:24:15;;;;;;;2.25;1.20;;;;;;;9.30;96.44;101439.22;5130033;27;20418;-55
2023/01/04 04:26:42;;;;;;;3.70;1.20;;;;;;;9.29;96.43;101438.34;5130938;27;20509;-55
2023/01/04 04:29:09;;;;;;;2.25;1.00;;;;;;;9.32;96.18;101429.34;5131077;27;20092;-55
2023/01/04 04:31:36;;;;;;;2.53;1.10;;;;;;;9.25;97.02;101418.41;5130719;28;20523;-55
2023/01/04 04:34:02;;;;;;;3.13;1.13;;;;;;;9.30;96.92;101424.16;5130955;27;20031;-56
2023/01/04 04:36:29;;;;;;;4.32;2.20;;;;;;;9.33;97.07;101425.69;5130532;27;20167;-55
2023/01/04 04:38:56;;;;;;;3.38;1.20;;;;;;;9.36;97.07;101420.16;5117883;28;20067;-56
2023/01/04 04:41:37;;;;;;;4.82;1.35;;;;;;;9.31;97.33;101425.81;5110323;28;20044;-55
2023/01/04 04:44:10;;;;;;;2.03;0.90;;;;;;;9.37;96.76;101437.72;5109747;28;20401;-55
2023/01/04 04:46:37;;;;;;;3.10;1.13;;;;;;;9.36;96.40;101421.00;5110395;28;20058;-56
2023/01/04 04:49:04;;;;;;;2.75;1.10;;;;;;;9.40;96.01;101403.03;5109978;28;20066;-56
2023/01/04 04:51:32;;;;;;;2.53;1.10;;;;;;;9.40;96.40;101400.38;5110092;28;20047;-56
2023/01/04 04:53:59;;;;;;;1.45;1.00;;;;;;;9.38;97.15;101397.03;5109991;28;20089;-55
2023/01/04 04:56:26;;;;;;;1.63;0.93;;;;;;;9.48;95.45;101387.34;5097971;28;20123;-55
2023/01/04 04:58:53;;;;;;;2.55;0.98;;;;;;;9.53;95.42;101403.69;5096088;28;20055;-55
2023/01/04 05:01:20;;;;;;;4.40;1.10;;;;;;;9.53;95.71;101392.22;5096544;28;20048;-56
2023/01/04 05:03:47;;;;;;;1.48;0.98;;;;;;;9.49;96.59;101396.94;5096332;28;20075;-56
2023/01/04 05:06:14;;;;;;;2.85;1.13;;;;;;;9.51;96.03;101391.53;5095545;28;20044;-56
2023/01/04 05:08:41;;;;;;;1.60;1.10;;;;;;;9.52;95.69;101394.06;5096100;28;20336;-56
2023/01/04 05:11:09;;;;;;;4.80;1.33;;;;;;;9.57;95.66;101397.16;5096022;28;20503;-56
2023/01/04 05:13:36;;;;;;;4.28;1.58;;;;;;;9.57;95.40;101386.56;5096154;28;20048;-55
2023/01/04 05:16:04;;;;;;;2.05;1.00;;;;;;;9.56;95.85;101392.81;5096021;28;20131;-56
2023/01/04 05:18:31;;;;;;;2.15;1.02;;;;;;;9.60;95.55;101385.44;5095890;28;20052;-56
2023/01/04 05:20:57;;;;;;;1.20;1.00;;;;;;;9.71;94.71;101392.47;5095599;28;20048;-56
2023/01/04 05:23:25;;;;;;;3.60;1.20;;;;;;;9.71;94.12;101385.34;5095675;28;20048;-56
2023/01/04 05:25:57;;;;;;;2.13;1.08;;;;;;;9.71;94.64;101381.88;5095724;28;20476;-56
2023/01/04 05:28:24;;;;;;;;;;;;;;;9.69;94.72;101384.63;5096035;28;20043;-55
2023/01/04 05:30:52;;;;;;;1.77;1.10;;;;;;;9.71;94.63;101371.28;5095924;28;19969;-56
2023/01/04 05:33:24;;;;;;;1.70;0.98;;;;;;;9.72;95.92;101375.59;5095609;28;20055;-56
2023/01/04 05:35:52;;;;;;;;;;;;;;;9.77;95.23;101374.22;5096095;28;20044;-56
2023/01/04 05:38:19;;;;;;;2.70;1.10;;;;;;;9.79;94.73;101368.81;5095695;28;19920;-56
2023/01/04 05:40:46;;;;;;;2.45;1.02;;;;;;;9.78;95.07;101367.13;5095485;28;20039;-56
2023/01/04 05:43:13;;;;;;;1.95;0.95;;;;;;;9.82;95.42;101357.09;5095494;28;20048;-55
2023/01/04 05:45:42;;;;;;;2.90;1.10;;;;;;;9.81;94.78;101358.91;5095182;28;20051;-55
2023/01/04 05:48:09;;;;;;;4.55;0.90;;;;;;;9.87;94.46;101361.00;5095514;28;20050;-55
2023/01/04 05:50:36;;;;;;;4.60;1.33;;;;;;;9.86;94.59;101339.94;5094789;28;20066;-56
2023/01/04 05:53:05;;;;;;;2.75;0.90;;;;;;;9.88;94.19;101333.56;5095518;28;20059;-56
2023/01/04 05:55:31;;;;;;;3.80;0.95;;;;;;;9.94;94.28;101338.28;5095225;28;20068;-56
2023/01/04 05:57:59;;;;;;;1.45;1.10;;;;;;;9.91;94.58;101340.38;5095220;28;20101;-56
2023/01/04 06:00:26;;;;;;;2.65;1.00;;;;;;;9.96;94.44;101333.69;5094979;28;20401;-56
2023/01/04 06:02:54;;;;;;;1.95;1.15;;;;;;;10.02;94.14;101337.63;5095232;28;20048;-56
2023/01/04 06:05:21;;;;;;;4.47;1.30;;;;;;;10.10;94.03;101344.91;5094582;28;20043;-55
2023/01/04 06:07:48;;;;;;;2.40;1.17;;;;;;;10.05;93.84;101325.91;5093229;28;20048;-56
2023/01/04 06:10:15;;;;;;;3.50;1.05;;;;;;;10.03;94.08;101327.88;5094877;28;20048;-56
2023/01/04 06:12:42;;;;;;;2.17;1.10;;;;;;;10.13;93.34;101345.47;5094993;28;20097;-56
2023/01/04 06:15:10;;;;;;;3.85;1.10;;;;;;;10.11;93.55;101323.53;5095001;28;20047;-55
2023/01/04 06:17:38;;;;;;;1.92;1.13;;;;;;;10.13;93.63;101329.56;5094937;28;20051;-56
2023/01/04 06:20:08;;;;;;;3.85;1.20;;;;;;;10.06;94.02;101322.28;5076875;28;20071;-56
2023/01/04 06:22:35;;;;;;;2.97;1.23;;;;;;;10.12;93.49;101333.19;5074116;28;20040;-56
2023/01/04 06:25:03;;;;;;;2.88;1.17;;;;;;;10.12;93.21;101324.41;5072855;28;20450;-55
2023/01/04 06:27:30;;;;;;;2.47;1.20;;;;;;;10.15;93.12;101314.34;5074184;28;20064;-56
2023/01/04 06:29:57;;;;;;;6.05;1.20;;;;;;;10.15;93.76;101313.50;5074084;28;20102;-55
2023/01/04 06:32:23;;;;;;;2.35;1.10;;;;;;;10.12;93.75;101303.19;5073976;28;20047;-56
2023/01/04 06:34:50;;;;;;;7.38;1.00;;;;;;;10.14;93.58;101302.06;5074368;28;20064;-56
2023/01/04 06:37:17;;;;;;;4.60;1.30;;;;;;;10.19;93.43;101297.19;5073832;28;20136;-55
2023/01/04 06:39:43;;;;;;;3.45;1.27;;;;;;;10.20;93.01;101292.72;5093626;28;20044;-56
2023/01/04 06:42:43;;;;;;;1.30;1.00;;;;;;;10.16;93.13;101292.16;5094185;28;20044;-55
2023/01/04 06:44:57;;;;;;;1.17;1.02;;;;;;;10.26;92.87;101286.03;5093659;28;20059;-56
2023/01/04 06:47:23;;;;;;;1.70;1.00;;;;;;;10.30;92.63;101271.53;5094441;28;20048;-56
2023/01/04 06:49:50;;;;;;;3.60;1.50;;;;;;;10.31;92.96;101279.34;5094271;28;20127;-56
2023/01/04 06:52:17;;;;;;;2.50;1.23;;;;;;;10.34;93.52;101296.81;5094021;28;20400;-56
2023/01/04 06:54:44;;;;;;;3.78;1.25;;;;;;;10.27;94.88;101303.63;5094067;28;20072;-56
2023/01/04 06:57:11;;;;;;;2.47;1.17;;;;;;;10.27;95.15;101298.31;5094262;28;20489;-56
2023/01/04 06:59:38;;;;;;;3.22;1.35;;;;;;;10.24;94.70;101296.78;5093869;28;20095;-56
2023/01/04 07:02:05;;;;;;;1.30;1.00;;;;;;;10.33;93.89;101311.03;5093840;28;20044;-55
2023/01/04 07:04:32;;;;;;;2.33;1.10;;;;;;;10.33;93.38;101301.28;5093613;28;20036;-55
2023/01/04 07:06:59;;;;;;;1.98;1.15;;;;;;;10.33;94.53;101309.25;5085207;28;20481;-56
2023/01/04 07:09:26;;;;;;;2.20;1.20;;;;;;;10.37;93.35;101294.72;5084466;28;20508;-56
2023/01/04 07:11:52;;;;;;;1.95;1.10;;;;;;;10.35;93.63;101287.88;5093581;28;20056;-56
2023/01/04 07:14:19;;;;;;;1.80;1.05;;;;;;;10.35;93.65;101296.69;5094262;28;20036;-56
2023/01/04 07:16:46;;;;;;;2.92;1.10;;;;;;;10.42;93.45;101286.34;5094009;28;20048;-56
2023/01/04 07:19:12;;;;;;;1.60;1.10;;;;;;;10.38;93.81;101271.69;5093839;28;20127;-56
2023/01/04 07:21:40;;;;;;;1.35;1.05;;;;;;;10.37;93.67;101278.00;5093541;28;20097;-56
2023/01/04 07:24:06;;;;;;;2.20;1.00;;;;;;;10.41;92.66;101276.72;5093531;28;20089;-56
2023/01/04 07:26:34;;;;;;;6.78;1.60;;;;;;;10.42;93.29;101280.19;5093737;28;20105;-56
2023/01/04 07:29:15;;;;;;;2.95;1.10;;;;;;;10.51;92.55;101280.22;5093533;28;20044;-55
2023/01/04 07:31:46;;;;;;;2.20;1.10;;;;;;;10.49;93.22;101276.84;5093802;28;20122;-56
2023/01/04 07:34:15;;;;;;;2.00;1.00;;;;;;;10.45;93.14;101287.91;5093778;28;20496;-55
2023/01/04 07:36:42;;;;;;;1.33;0.98;;;;;;;10.49;92.44;101276.84;5093286;28;20067;-56
2023/01/04 07:39:11;;;;;;;1.85;1.02;;;;;;;10.54;92.53;101277.25;5093343;28;20477;-56
2023/01/04 07:41:39;;;;;;;2.90;1.15;;;;;;;10.55;92.67;101276.31;5093635;28;20040;-56
2023/01/04 07:44:08;;;;;;;5.35;1.10;;;;;;;10.51;92.58;101277.56;5092790;28;20056;-56
2023/01/04 07:46:35;;;;;;;4.38;1.10;;;;;;;10.63;92.12;101285.38;5093361;28;20555;-55
2023/01/04 07:49:03;;;;;;;4.47;1.38;;;;;;;10.60;93.12;101286.47;5093548;28;20130;-56
2023/01/04 07:51:31;;;;;;;2.97;1.20;;;;;;;10.63;92.27;101288.03;5092883;28;20040;-56
2023/01/04 07:53:58;;;;;;;3.90;1.48;;;;;;;10.63;92.54;101288.84;5093425;28;20108;-56
2023/01/04 07:56:25;;;;;;;3.25;1.10;;;;;;;10.65;92.57;101270.97;5093044;28;20109;-56
2023/01/04 07:58:55;;;;;;;3.33;1.05;;;;;;;10.62;92.03;101281.88;5093473;28;20048;-56
2023/01/04 08:01:23;;;;;;;2.50;1.10;;;;;;;10.66;92.68;101275.31;5092970;28;20493;-56
2023/01/04 08:03:50;;;;;;;2.35;1.20;;;;;;;10.69;92.28;101266.22;5093178;28;20044;-54
2023/01/04 08:06:20;;;;;;;0.98;0.80;;;;;;;10.76;91.61;101268.16;5092572;28;20044;-55
2023/01/04 08:08:47;;;;;;;7.45;2.25;;;;;;;10.76;91.59;101260.19;5092935;28;20044;-56
2023/01/04 08:11:16;;;;;;;2.90;1.10;;;;;;;10.77;91.93;101266.38;5093289;28;20044;-56
2023/01/04 08:13:43;;;;;;;1.92;1.10;;;;;;;10.79;92.02;101274.16;5093182;28;20102;-56
2023/01/04 08:16:27;;;;;;;2.53;1.30;;;;;;;10.81;91.79;101262.44;5093361;28;20047;-56
2023/01/04 08:18:55;;;;;;;1.67;1.05;;;;;;;10.80;92.46;101271.38;5092951;28;20379;-56
2023/01/04 08:21:23;;;;;;;2.83;1.15;;;;;;;10.89;91.81;101289.09;5063981;28;20044;-56
2023/01/04 08:23:51;;;;;;;2.55;1.20;;;;;;;10.90;91.81;101279.31;5093016;28;20052;-56
2023/01/04 08:26:18;;;;;;;3.88;1.05;;;;;;;10.85;92.03;101266.47;5092776;28;20139;-56
2023/01/04 08:28:45;;;;;;;2.35;1.10;;;;;;;10.84;91.96;101266.59;5092995;28;20066;-56
2023/01/04 08:31:16;;;;;;;3.53;1.30;;;;;;;10.76;92.85;101270.81;5094989;28;20052;-56
2023/01/04 08:33:43;;;;;;;2.20;1.10;;;;;;;10.81;92.57;101270.41;5096451;28;20123;-55
2023/01/04 08:36:20;;;;;;;4.25;1.20;;;;;;;10.77;92.95;101261.06;5096498;28;20059;-55
2023/01/04 08:38:55;;;;;;;2.88;1.30;;;;;;;10.80;92.93;101254.63;5096725;28;20048;-55
2023/01/04 08:41:25;;;;;;;5.18;1.10;;;;;;;10.79;92.83;101252.94;5096639;28;20058;-55
2023/01/04 08:44:12;;;;;;;2.78;1.20;;;;;;;10.88;92.91;101258.22;5095145;28;20578;-55
2023/01/04 08:46:38;;;;;;;1.90;1.05;;;;;;;10.84;93.16;101251.53;5096607;28;20075;-57
2023/01/04 08:49:05;;;;;;;3.88;1.20;;;;;;;10.83;93.56;101251.69;5096319;28;20139;-55
2023/01/04 08:51:32;;;;;;;6.82;1.40;;;;;;;10.86;93.29;101252.22;5096631;28;20439;-55
2023/01/04 08:53:58;;;;;;;2.33;1.00;;;;;;;10.85;93.72;101249.72;5096341;28;20450;-56
2023/01/04 08:56:25;;;;;;;2.35;1.05;;;;;;;10.81;94.17;101248.34;5096617;28;20488;-56
2023/01/04 08:58:52;;;;;;;2.75;1.20;;;;;;;10.87;94.22;101258.38;5096209;28;20483;-56
2023/01/04 09:01:18;;;;;;;3.45;1.15;;;;;;;10.92;93.61;101250.81;5096290;28;20101;-56
2023/01/04 09:03:45;;;;;;;4.43;1.10;;;;;;;10.91;93.79;101244.69;5096306;28;20048;-55
2023/01/04 09:06:13;;;;;;;5.72;1.35;;;;;;;10.87;94.50;101261.03;5095645;28;20489;-55
2023/01/04 09:08:41;;;;;;;2.45;1.02;;;;;;;10.89;93.52;101251.09;5095759;28;20048;-56
2023/01/04 09:11:14;;;;;;;4.10;1.00;;;;;;;10.90;93.51;101237.69;5095966;28;20101;-55
2023/01/04 09:13:42;;;;;;;3.25;1.10;;;;;;;10.92;93.64;101245.50;5096281;28;20040;-55
2023/01/04 09:16:12;;;;;;;2.58;1.20;;;;;;;10.92;93.11;101251.66;5095856;28;20094;-55
2023/01/04 09:18:39;;;;;;;2.85;1.10;;;;;;;11.01;92.56;101251.78;5096287;28;20044;-55
2023/01/04 09:21:08;;;;;;;2.65;1.20;;;;;;;11.03;91.87;101255.94;5095434;28;20051;-55
2023/01/04 09:23:36;;;;;;;3.10;1.20;;;;;;;11.05;91.35;101235.41;5096204;28;20054;-55
2023/01/04 09:26:05;;;;;;;3.47;1.35;;;;;;;11.09;91.39;101241.25;5095672;28;20044;-55
2023/01/04 09:28:35;;;;;;;2.30;1.00;;;;;;;11.07;90.66;101233.44;5095700;28;20044;-55
2023/01/04 09:31:12;;;;;;;1.88;1.00;;;;;;;11.12;91.33;101240.97;5095707;28;20079;-55
2023/01/04 09:33:39;;;;;;;1.80;1.02;;;;;;;11.06;91.44;101249.50;5095667;28;20055;-55
2023/01/04 09:36:27;;;;;;;2.65;1.05;;;;;;;11.10;91.20;101251.75;5094467;28;20042;-56
2023/01/04 09:38:54;;;;;;;3.22;1.10;;;;;;;11.16;91.10;101241.53;5094231;28;20515;-56
2023/01/04 09:41:25;;;;;;;4.35;1.27;;;;;;;11.14;91.13;101239.84;5095411;28;20075;-56
2023/01/04 09:43:55;;;;;;;2.05;1.20;;;;;;;11.17;90.84;101233.41;5095231;28;20063;-56
2023/01/04 09:46:46;;;;;;;2.42;1.30;;;;;;;11.21;90.90;101223.34;5095449;28;20122;-56
2023/01/04 09:51:59;;;;;;;3.33;1.20;;;;;;;11.20;90.61;101226.97;5110780;27;20380;-56
2023/01/04 09:54:36;;;;;;;3.58;1.17;;;;;;;11.24;90.53;101231.00;5111454;28;20069;-55
2023/01/04 09:57:04;;;;;;;1.98;1.00;;;;;;;11.21;90.30;101232.13;5111119;28;20048;-55
2023/01/04 09:59:32;;;;;;;3.42;1.17;;;;;;;11.23;90.40;101234.66;5111304;28;20480;-55
2023/01/04 10:02:09;;;;;;;3.72;1.13;;;;;;;11.22;91.84;101232.97;5110900;28;20044;-55
2023/01/04 10:04:48;;;;;;;3.40;1.20;;;;;;;11.12;94.64;101241.81;5111228;28;20048;-55
2023/01/04 10:07:32;;;;;;;2.58;1.00;;;;;;;10.93;94.88;101242.72;5110044;28;20079;-55
2023/01/04 10:09:59;;;;;;;3.45;1.33;;;;;;;10.97;94.75;101232.66;5090372;28;20463;-55
2023/01/04 10:12:53;;;;;;;3.88;1.20;;;;;;;10.97;94.70;101242.41;5090411;28;20052;-55
2023/01/04 10:15:34;;;;;;;10.60;1.30;;;;;;;10.92;95.08;101241.03;5090671;28;20065;-56
2023/01/04 10:18:30;;;;;;;8.73;1.20;;;;;;;10.97;94.79;101243.28;5090227;28;20044;-56
2023/01/04 10:21:30;;;;;;;6.40;1.70;;;;;;;10.89;97.60;101240.47;5104573;28;20042;-56
2023/01/04 10:24:38;;;;;;;2.55;1.23;;;;;;;10.75;99.62;101237.31;5108551;28;20071;-55
2023/01/04 10:27:29;;;;;;;4.90;1.40;;;;;;;10.70;100.00;101241.38;5099096;28;20170;-56
2023/01/04 10:30:22;;;;;;;3.10;1.20;;;;;;;10.63;100.00;101225.19;5120455;28;20047;-56
2023/01/04 10:33:02;;;;;;;6.68;1.38;;;;;;;10.64;100.00;101220.69;5130238;27;20059;-55
2023/01/04 10:35:32;;;;;;;4.45;1.33;;;;;;;10.67;100.00;101217.78;5116733;27;20039;-55
2023/01/04 10:38:02;;;;;;;6.63;1.50;;;;;;;10.60;100.00;101209.53;5111902;28;20040;-56
2023/01/04 10:40:34;;;;;;;7.43;1.30;;;;;;;10.63;100.00;101206.59;5107088;28;20140;-53
2023/01/04 10:43:06;;;;;;;;;;;;;;;10.75;100.00;101209.91;5100582;27;20047;-56
2023/01/04 10:45:45;;;;;;;9.55;1.48;;;;;;;10.67;100.00;101207.16;5102851;28;20375;-56
2023/01/04 10:48:26;;;;;;;8.60;1.50;;;;;;;10.76;100.00;101203.63;5108908;28;20047;-56
2023/01/04 10:50:56;;;;;;;4.45;1.42;;;;;;;10.69;100.00;101194.59;5047598;27;20954;-56
2023/01/04 10:53:32;;;;;;;4.63;1.45;;;;;;;10.70;100.00;101183.81;5095787;28;20043;-56
2023/01/04 10:56:08;;;;;;;3.85;1.50;;;;;;;10.77;100.00;101184.09;5113200;28;20151;-56
2023/01/04 10:58:45;;;;;;;6.47;1.52;;;;;;;10.80;100.00;101181.13;5119498;27;20476;-56
2023/01/04 11:01:39;;;;;;;2.65;1.40;;;;;;;10.88;100.00;101177.78;5112956;28;20051;-56
2023/01/04 11:04:32;;;;;;;6.38;1.40;;;;;;;10.90;100.00;101181.13;5104160;28;20511;-56
2023/01/04 11:07:07;;;;;;;8.70;1.60;;;;;;;10.94;100.00;101171.88;5078421;28;20040;-56
2023/01/04 11:09:57;;;;;;;4.72;1.45;;;;;;;10.92;100.00;101174.66;5099787;28;20167;-56
2023/01/04 11:12:25;;;;;;;5.47;1.55;;;;;;;11.04;100.00;101170.03;5103592;28;20441;-56
2023/01/04 11:14:51;;;;;;;4.78;1.63;;;;;;;10.93;100.00;101178.16;5081378;28;20047;-56
2023/01/04 11:17:20;;;;;;;9.15;1.70;;;;;;;10.92;100.00;101176.50;5106312;28;20434;-56
2023/01/04 11:19:47;;;;;;;6.63;1.65;;;;;;;10.97;100.00;101179.56;5101401;28;20039;-56
2023/01/04 11:22:21;;;;;;;6.55;1.70;;;;;;;10.86;100.00;101153.19;5086077;28;20044;-56
2023/01/04 11:24:59;;;;;;;6.45;1.50;;;;;;;10.98;100.00;101156.50;5102436;28;20050;-56
2023/01/04 11:27:55;;;;;;;6.07;1.52;;;;;;;11.06;100.00;101159.22;5101414;28;20522;-56
2023/01/04 11:30:24;;;;;;;3.45;1.45;;;;;;;11.03;100.00;101155.06;5099033;28;20053;-56
2023/01/04 11:33:01;;;;;;;5.40;1.60;;;;;;;10.93;100.00;101165.75;5095397;28;20052;-56
2023/01/04 11:35:48;;;;;;;8.70;1.70;;;;;;;10.97;100.00;101163.63;5095274;28;20044;-56
2023/01/04 11:38:22;;;;;;;3.35;1.20;;;;;;;11.04;100.00;101150.59;5079707;28;20042;-56
2023/01/04 11:41:07;;;;;;;4.78;1.50;;;;;;;11.13;100.00;101152.34;5078946;28;20431;-56
2023/01/04 11:43:37;;;;;;;6.07;1.50;;;;;;;11.11;100.00;101147.22;5083925;28;20048;-56
2023/01/04 11:46:19;;;;;;;4.97;1.35;;;;;;;11.07;100.00;101161.75;5093679;28;20055;-56
2023/01/04 11:48:47;;;;;;;5.22;1.42;;;;;;;11.13;100.00;101142.59;5094169;28;20054;-56
2023/01/04 11:54:18;;;;;;;5.82;1.45;;;;;;;11.19;100.00;101142.97;5079741;27;20426;-55
2023/01/04 11:57:09;;;;;;;;;;;;;;;11.14;100.00;101146.91;5100711;28;20052;-54
2023/01/04 11:59:37;;;;;;;3.70;1.50;;;;;;;11.14;100.00;101165.50;5096388;28;19980;-55
2023/01/04 12:02:24;;;;;;;2.30;1.20;;;;;;;11.20;100.00;101140.16;5092610;28;20053;-55
2023/01/04 12:05:18;;;;;;;1.88;1.15;;;;;;;11.18;100.00;101133.34;5072945;28;20062;-55
2023/01/04 12:07:48;;;;;;;2.95;1.20;;;;;;;11.17;100.00;101134.31;5073984;28;20051;-56
2023/01/04 12:10:20;;;;;;;2.97;1.17;;;;;;;11.20;100.00;101126.06;5084565;28;20401;-54
2023/01/04 12:12:47;;;;;;;4.93;1.48;;;;;;;11.23;100.00;101115.16;5087714;28;20043;-55
2023/01/04 12:15:22;;;;;;;3.47;1.50;;;;;;;11.30;99.84;101140.13;5089019;28;20044;-55
2023/01/04 12:17:55;;;;;;;1.67;1.20;;;;;;;11.27;100.00;101104.06;5095977;28;20409;-56
2023/01/04 12:20:26;;;;;;;3.80;1.38;;;;;;;11.32;100.00;101106.28;5082231;28;20427;-55
2023/01/04 12:22:53;;;;;;;2.60;1.30;;;;;;;11.28;100.00;101118.19;5087378;28;20097;-56
2023/01/04 12:25:37;;;;;;;6.40;1.60;;;;;;;11.28;100.00;101096.94;5081481;28;20045;-55
2023/01/04 12:28:04;;;;;;;3.42;1.40;;;;;;;11.22;100.00;101089.56;5100586;28;20093;-56
2023/01/04 12:30:35;;;;;;;2.63;1.30;;;;;;;11.25;100.00;101111.34;5103225;28;20048;-56
2023/01/04 12:33:39;;;;;;;5.60;1.50;;;;;;;11.25;100.00;101111.34;5086304;28;20581;-56
2023/01/04 12:36:09;;;;;;;2.60;1.17;;;;;;;11.08;100.00;101110.34;5082840;28;20363;-55
2023/01/04 12:50:01;;;;;;;2.83;1.20;;;;;;;11.14;100.00;101083.19;5060467;28;20369;-55
2023/01/04 12:55:26;;;;;;;3.33;1.30;;;;;;;11.23;100.00;101086.75;5072968;27;20373;-56